createdAt,value
2019-03-19T15:02:38.484Z,3.58
2019-03-19T15:05:09.135Z,3.20
2019-03-19T15:07:40.198Z,3.20
2019-03-19T15:10:12.523Z,2.85
2019-03-19T15:12:42.605Z,3.52
2019-03-19T15:15:13.415Z,3.22
2019-03-19T15:17:43.126Z,3.83
2019-03-19T15:20:17.339Z,3.22
2019-03-19T15:22:47.092Z,3.17
2019-03-19T15:25:17.401Z,3.50
2019-03-19T15:27:47.378Z,3.55
2019-03-19T15:30:17.358Z,3.70
2019-03-19T15:32:46.970Z,3.90
2019-03-19T15:35:18.054Z,5.28
2019-03-19T15:37:48.184Z,3.92
2019-03-19T15:40:21.131Z,4.00
2019-03-19T15:42:51.902Z,3.58
2019-03-19T15:45:21.578Z,4.12
2019-03-19T15:47:52.722Z,3.55
2019-03-19T15:50:23.106Z,3.98
2019-03-19T15:52:53.210Z,3.70
2019-03-19T15:55:24.684Z,3.55
2019-03-19T15:57:55.075Z,3.67
2019-03-19T16:00:25.092Z,3.92
2019-03-19T16:02:57.242Z,3.72
2019-03-19T16:05:27.688Z,3.45
2019-03-19T16:07:58.044Z,4.03
2019-03-19T16:10:28.114Z,3.60
2019-03-19T16:12:58.379Z,3.27
2019-03-19T16:15:28.808Z,3.77
2019-03-19T16:17:58.878Z,3.40
2019-03-19T16:20:28.894Z,3.50
2019-03-19T16:22:58.926Z,3.70
2019-03-19T16:25:28.951Z,3.12
2019-03-19T16:27:58.988Z,3.95
2019-03-19T16:30:29.382Z,3.17
2019-03-19T16:32:59.083Z,3.00
2019-03-19T16:35:29.515Z,3.20
2019-03-19T16:37:59.169Z,2.98
2019-03-19T16:40:29.520Z,3.15
2019-03-19T16:42:59.479Z,3.47
2019-03-19T16:45:30.028Z,3.10
2019-03-19T16:48:00.665Z,3.60
2019-03-19T16:50:30.927Z,3.50
2019-03-19T16:53:00.588Z,3.08
2019-03-19T16:55:30.966Z,3.27
2019-03-19T16:58:01.130Z,3.25
2019-03-19T17:00:31.749Z,3.40
2019-03-19T17:03:04.745Z,3.08
2019-03-19T17:05:34.344Z,3.72
2019-03-19T17:08:05.031Z,3.72
2019-03-19T17:10:34.383Z,3.42
2019-03-19T17:13:04.939Z,3.37
2019-03-19T17:15:35.030Z,3.37
2019-03-19T17:18:09.031Z,3.75
2019-03-19T17:20:39.291Z,3.25
2019-03-19T17:23:09.265Z,3.33
2019-03-19T17:25:38.565Z,3.12
2019-03-19T17:28:08.269Z,4.03
2019-03-19T17:30:38.227Z,4.70
2019-03-19T17:33:08.659Z,3.85
2019-03-19T17:35:38.654Z,3.58
2019-03-19T17:38:09.980Z,3.20
2019-03-19T17:40:41.789Z,3.22
2019-03-19T17:43:12.663Z,3.70
2019-03-19T17:45:43.120Z,4.45
2019-03-19T17:48:16.398Z,9.53
2019-03-19T17:50:44.596Z,16.12
2019-03-19T17:53:15.011Z,9.85
2019-03-19T17:55:45.264Z,6.55
2019-03-19T17:58:15.468Z,7.28
2019-03-19T18:00:47.803Z,5.10
2019-03-19T18:03:17.133Z,4.90
2019-03-19T18:05:47.546Z,7.05
2019-03-19T18:08:17.549Z,11.08
2019-03-19T18:10:47.581Z,30.50
2019-03-19T18:13:17.916Z,65.45
2019-03-19T18:15:47.526Z,29.42
2019-03-19T18:18:18.267Z,10.05
2019-03-19T18:20:48.964Z,6.55
2019-03-19T18:23:19.474Z,6.60
2019-03-19T18:25:49.647Z,11.43
2019-03-19T18:28:19.000Z,11.95
2019-03-19T18:30:49.716Z,9.15
2019-03-19T18:33:20.114Z,5.78
2019-03-19T18:35:50.227Z,4.53
2019-03-19T18:38:19.971Z,4.00
2019-03-19T18:40:51.528Z,4.12
2019-03-19T18:43:21.681Z,4.75
2019-03-19T18:45:52.574Z,4.58
2019-03-19T18:48:23.093Z,3.50
2019-03-19T18:50:52.766Z,3.40
2019-03-19T18:53:22.041Z,3.98
2019-03-19T18:55:51.984Z,4.42
2019-03-19T18:58:21.675Z,3.27
2019-03-19T19:00:51.992Z,3.30
2019-03-19T19:03:22.233Z,3.40
2019-03-19T19:05:52.433Z,3.30
2019-03-19T19:08:24.773Z,2.90
2019-03-19T19:10:53.499Z,3.50
2019-03-19T19:13:23.914Z,2.80
2019-03-19T19:15:54.018Z,3.00
2019-03-19T19:18:24.212Z,3.30
2019-03-19T19:20:55.107Z,3.02
2019-03-19T19:23:25.852Z,2.92
2019-03-19T19:25:56.353Z,2.92
2019-03-19T19:28:25.699Z,6.50
2019-03-19T19:30:57.479Z,4.80
2019-03-19T19:33:27.673Z,3.92
2019-03-19T19:35:57.681Z,3.83
2019-03-19T19:38:28.039Z,4.33
2019-03-19T19:40:58.143Z,3.40
2019-03-19T19:43:28.258Z,3.33
2019-03-19T19:45:58.683Z,2.72
2019-03-19T19:48:29.020Z,2.90
2019-03-19T19:50:59.159Z,2.77
2019-03-19T19:53:29.219Z,2.75
2019-03-19T19:55:59.627Z,3.40
2019-03-19T19:58:30.028Z,3.10
2019-03-19T20:01:00.131Z,3.02
2019-03-19T20:03:30.410Z,3.12
2019-03-19T20:06:01.118Z,3.58
2019-03-19T20:08:31.278Z,3.40
2019-03-19T20:11:01.693Z,3.20
2019-03-19T20:13:32.095Z,3.45
2019-03-19T20:16:02.548Z,3.47
2019-03-19T20:18:34.707Z,3.17
2019-03-19T20:21:04.042Z,2.72
2019-03-19T20:23:34.319Z,2.90
2019-03-19T20:26:04.704Z,3.05
2019-03-19T20:28:35.512Z,2.65
2019-03-19T20:31:05.837Z,2.60
2019-03-19T20:33:38.426Z,3.02
2019-03-19T20:36:08.465Z,2.98
2019-03-19T20:38:38.976Z,2.60
2019-03-19T20:41:09.393Z,2.62
2019-03-19T20:43:42.756Z,2.50
2019-03-19T20:46:12.996Z,2.08
2019-03-19T20:48:42.735Z,108.15
2019-03-19T20:51:13.544Z,335.68
2019-03-19T20:53:43.275Z,410.52
2019-03-19T20:56:13.711Z,327.98
2019-03-19T20:58:44.083Z,353.25
